N9902S KCXO-KGAO
Flight info
| Callsign | N9902S |
|---|---|
| Flight time | 0h 41m |
| Altitude | 37000 |
| Route | DAS KNZLY TBD |
| Aircraft | C700/M-SBDGHM1RWXY/LB2 |
Departure
| Time | 2026-05-07 02:02 |
|---|---|
| Airport | Conroe-North Houston Regional Airport (KCXO) |
Arrival
| Time | 2026-05-07 02:43 |
|---|---|
| Airport | South Lafourche Leonard Miller Jr Airport (KGAO) |
| Time | Latitude | Longitude | Altitude | Speed | Heading |
|---|---|---|---|---|---|
| 2026-05-07 02:00 | 30.34539 | -95.40769 | 243 ft | 0 kts | 65° |
| 2026-05-07 02:01 | 30.34544 | -95.40758 | 227 ft | 7 kts | 57° |
| 2026-05-07 02:01 | 30.34601 | -95.40721 | 242 ft | 0 kts | 323° |
| 2026-05-07 02:01 | 30.34620 | -95.40736 | 242 ft | 15 kts | 324° |
| 2026-05-07 02:02 | 30.34935 | -95.40987 | 241 ft | 106 kts | 324° |
| 2026-05-07 02:02 | 30.35776 | -95.41610 | 659 ft | 165 kts | 339° |
| 2026-05-07 02:02 | 30.36938 | -95.41586 | 1624 ft | 182 kts | 24° |
| 2026-05-07 02:02 | 30.37802 | -95.40494 | 2612 ft | 197 kts | 66° |
| 2026-05-07 02:03 | 30.37850 | -95.38859 | 3505 ft | 215 kts | 106° |
| 2026-05-07 02:03 | 30.37336 | -95.37213 | 4552 ft | 220 kts | 112° |
| 2026-05-07 02:03 | 30.36825 | -95.35525 | 5641 ft | 224 kts | 110° |
| 2026-05-07 02:03 | 30.36398 | -95.33775 | 6684 ft | 229 kts | 107° |
| 2026-05-07 02:04 | 30.35973 | -95.31968 | 7652 ft | 235 kts | 108° |
| 2026-05-07 02:04 | 30.35512 | -95.30135 | 8598 ft | 241 kts | 108° |
| 2026-05-07 02:04 | 30.35041 | -95.28250 | 9527 ft | 246 kts | 109° |
| 2026-05-07 02:04 | 30.34559 | -95.26325 | 10348 ft | 252 kts | 109° |
| 2026-05-07 02:05 | 30.34065 | -95.24347 | 11119 ft | 259 kts | 110° |
| 2026-05-07 02:05 | 30.33560 | -95.22323 | 11870 ft | 265 kts | 110° |
| 2026-05-07 02:05 | 30.33044 | -95.20254 | 12592 ft | 271 kts | 111° |
| 2026-05-07 02:05 | 30.32514 | -95.18142 | 13309 ft | 276 kts | 111° |
| 2026-05-07 02:06 | 30.31977 | -95.15989 | 13987 ft | 281 kts | 112° |
| 2026-05-07 02:06 | 30.31426 | -95.13792 | 14741 ft | 287 kts | 113° |
| 2026-05-07 02:06 | 30.30840 | -95.11484 | 15529 ft | 312 kts | 113° |
| 2026-05-07 02:06 | 30.30203 | -95.08967 | 16242 ft | 341 kts | 112° |
| 2026-05-07 02:07 | 30.29519 | -95.06226 | 17008 ft | 368 kts | 112° |
| 2026-05-07 02:07 | 30.28023 | -95.00233 | 19036 ft | 397 kts | 112° |
| 2026-05-07 02:07 | 30.27242 | -94.97134 | 20152 ft | 406 kts | 113° |
| 2026-05-07 02:08 | 30.26440 | -94.93970 | 21241 ft | 414 kts | 113° |
| 2026-05-07 02:08 | 30.25635 | -94.90782 | 22327 ft | 422 kts | 113° |
| 2026-05-07 02:08 | 30.24805 | -94.87488 | 23367 ft | 431 kts | 113° |
| 2026-05-07 02:08 | 30.23957 | -94.84137 | 24247 ft | 438 kts | 113° |
| 2026-05-07 02:09 | 30.23094 | -94.80732 | 25151 ft | 445 kts | 113° |
| 2026-05-07 02:09 | 30.22215 | -94.77267 | 26057 ft | 452 kts | 113° |
| 2026-05-07 02:09 | 30.21322 | -94.73748 | 26918 ft | 460 kts | 113° |
| 2026-05-07 02:09 | 30.20412 | -94.70171 | 27740 ft | 467 kts | 113° |
| 2026-05-07 02:10 | 30.19502 | -94.66536 | 28539 ft | 476 kts | 111° |
| 2026-05-07 02:10 | 30.18954 | -94.62703 | 29334 ft | 491 kts | 99° |
| 2026-05-07 02:10 | 30.18815 | -94.58722 | 30124 ft | 500 kts | 95° |
| 2026-05-07 02:10 | 30.18722 | -94.54689 | 30814 ft | 506 kts | 95° |
| 2026-05-07 02:11 | 30.18613 | -94.50601 | 31480 ft | 512 kts | 95° |
| 2026-05-07 02:11 | 30.18496 | -94.46469 | 32099 ft | 518 kts | 95° |
| 2026-05-07 02:11 | 30.18384 | -94.42283 | 32702 ft | 523 kts | 95° |
| 2026-05-07 02:11 | 30.18273 | -94.38064 | 33350 ft | 526 kts | 95° |
| 2026-05-07 02:12 | 30.18158 | -94.33841 | 34151 ft | 525 kts | 95° |
| 2026-05-07 02:12 | 30.18038 | -94.29625 | 34871 ft | 524 kts | 95° |
| 2026-05-07 02:12 | 30.17918 | -94.25418 | 35636 ft | 523 kts | 95° |
| 2026-05-07 02:12 | 30.17800 | -94.21229 | 36381 ft | 521 kts | 95° |
| 2026-05-07 02:13 | 30.17679 | -94.17046 | 36892 ft | 525 kts | 95° |
| 2026-05-07 02:13 | 30.17550 | -94.12766 | 36896 ft | 540 kts | 95° |
| 2026-05-07 02:13 | 30.17417 | -94.08365 | 36897 ft | 555 kts | 95° |
| 2026-05-07 02:13 | 30.17287 | -94.03866 | 36904 ft | 563 kts | 95° |
| 2026-05-07 02:14 | 30.17015 | -93.94807 | 36935 ft | 565 kts | 95° |
| 2026-05-07 02:14 | 30.16730 | -93.85728 | 36944 ft | 565 kts | 95° |
| 2026-05-07 02:15 | 30.16444 | -93.76654 | 36943 ft | 565 kts | 95° |
| 2026-05-07 02:15 | 30.16148 | -93.67586 | 36936 ft | 564 kts | 95° |
| 2026-05-07 02:16 | 30.15849 | -93.58533 | 36932 ft | 564 kts | 95° |
| 2026-05-07 02:16 | 30.15542 | -93.49479 | 36937 ft | 563 kts | 95° |
| 2026-05-07 02:17 | 30.15230 | -93.40438 | 36936 ft | 563 kts | 95° |
| 2026-05-07 02:17 | 30.14912 | -93.31402 | 36929 ft | 562 kts | 95° |
| 2026-05-07 02:18 | 30.14590 | -93.22440 | 36920 ft | 562 kts | 95° |
| 2026-05-07 02:18 | 30.14259 | -93.13429 | 36921 ft | 561 kts | 96° |
| 2026-05-07 02:19 | 30.12971 | -93.04637 | 36915 ft | 553 kts | 108° |
| 2026-05-07 02:19 | 30.11231 | -92.95982 | 36915 ft | 553 kts | 107° |
| 2026-05-07 02:20 | 30.09489 | -92.87335 | 36917 ft | 552 kts | 108° |
| 2026-05-07 02:20 | 30.07741 | -92.78708 | 36913 ft | 552 kts | 107° |
| 2026-05-07 02:21 | 30.05992 | -92.70084 | 36911 ft | 551 kts | 107° |
| 2026-05-07 02:21 | 30.04234 | -92.61473 | 36913 ft | 551 kts | 107° |
| 2026-05-07 02:22 | 30.02478 | -92.52876 | 36914 ft | 550 kts | 107° |
| 2026-05-07 02:22 | 30.00714 | -92.44292 | 36913 ft | 550 kts | 107° |
| 2026-05-07 02:23 | 29.98948 | -92.35713 | 36908 ft | 550 kts | 107° |
| 2026-05-07 02:23 | 29.98067 | -92.31446 | 36304 ft | 543 kts | 107° |
| 2026-05-07 02:23 | 29.97199 | -92.27241 | 35596 ft | 533 kts | 107° |
| 2026-05-07 02:24 | 29.96347 | -92.23126 | 34904 ft | 524 kts | 107° |
| 2026-05-07 02:24 | 29.95500 | -92.19061 | 34217 ft | 520 kts | 107° |
| 2026-05-07 02:24 | 29.94652 | -92.14995 | 33488 ft | 523 kts | 107° |
| 2026-05-07 02:24 | 29.93802 | -92.10909 | 32796 ft | 527 kts | 107° |
| 2026-05-07 02:25 | 29.92943 | -92.06786 | 32103 ft | 530 kts | 107° |
| 2026-05-07 02:25 | 29.92079 | -92.02650 | 31403 ft | 532 kts | 107° |
| 2026-05-07 02:25 | 29.91210 | -91.98499 | 30707 ft | 534 kts | 107° |
| 2026-05-07 02:25 | 29.90336 | -91.94331 | 30001 ft | 535 kts | 107° |
| 2026-05-07 02:26 | 29.89462 | -91.90167 | 29256 ft | 532 kts | 107° |
| 2026-05-07 02:26 | 29.88596 | -91.86042 | 28555 ft | 527 kts | 107° |
| 2026-05-07 02:26 | 29.87737 | -91.81967 | 27861 ft | 521 kts | 107° |
| 2026-05-07 02:26 | 29.86884 | -91.77930 | 27186 ft | 515 kts | 107° |
| 2026-05-07 02:27 | 29.86052 | -91.73992 | 26521 ft | 510 kts | 107° |
| 2026-05-07 02:27 | 29.85217 | -91.70048 | 25853 ft | 504 kts | 107° |
| 2026-05-07 02:27 | 29.84391 | -91.66150 | 25199 ft | 498 kts | 107° |
| 2026-05-07 02:27 | 29.83572 | -91.62296 | 24559 ft | 493 kts | 107° |
| 2026-05-07 02:28 | 29.82760 | -91.58479 | 23913 ft | 488 kts | 107° |
| 2026-05-07 02:28 | 29.81956 | -91.54703 | 23240 ft | 483 kts | 107° |
| 2026-05-07 02:28 | 29.81160 | -91.50970 | 22595 ft | 476 kts | 107° |
| 2026-05-07 02:28 | 29.80373 | -91.47289 | 21973 ft | 471 kts | 107° |
| 2026-05-07 02:29 | 29.79593 | -91.43648 | 21356 ft | 467 kts | 107° |
| 2026-05-07 02:29 | 29.78819 | -91.40035 | 20748 ft | 463 kts | 107° |
| 2026-05-07 02:29 | 29.78052 | -91.36457 | 20143 ft | 458 kts | 108° |
| 2026-05-07 02:29 | 29.77291 | -91.32913 | 19538 ft | 454 kts | 108° |
| 2026-05-07 02:30 | 29.76534 | -91.29395 | 18945 ft | 450 kts | 108° |
| 2026-05-07 02:30 | 29.75785 | -91.25923 | 18353 ft | 445 kts | 108° |
| 2026-05-07 02:30 | 29.75044 | -91.22486 | 17731 ft | 440 kts | 108° |
| 2026-05-07 02:30 | 29.74309 | -91.19081 | 17165 ft | 435 kts | 108° |
| 2026-05-07 02:31 | 29.73570 | -91.15724 | 16597 ft | 430 kts | 108° |
| 2026-05-07 02:31 | 29.72837 | -91.12406 | 16062 ft | 426 kts | 108° |
| 2026-05-07 02:31 | 29.72131 | -91.09106 | 15528 ft | 423 kts | 108° |
| 2026-05-07 02:31 | 29.71430 | -91.05834 | 15015 ft | 419 kts | 108° |
| 2026-05-07 02:32 | 29.70726 | -91.02603 | 14513 ft | 415 kts | 108° |
| 2026-05-07 02:32 | 29.70026 | -90.99398 | 14019 ft | 411 kts | 108° |
| 2026-05-07 02:32 | 29.69338 | -90.96228 | 13511 ft | 408 kts | 108° |
| 2026-05-07 02:32 | 29.68654 | -90.93080 | 12973 ft | 403 kts | 108° |
| 2026-05-07 02:33 | 29.67975 | -90.89964 | 12452 ft | 399 kts | 108° |
| 2026-05-07 02:33 | 29.67301 | -90.86885 | 11941 ft | 395 kts | 108° |
| 2026-05-07 02:33 | 29.66641 | -90.83839 | 11441 ft | 391 kts | 108° |
| 2026-05-07 02:33 | 29.66302 | -90.80711 | 11003 ft | 402 kts | 96° |
| 2026-05-07 02:34 | 29.66162 | -90.77464 | 10989 ft | 410 kts | 97° |
| 2026-05-07 02:34 | 29.65933 | -90.74190 | 10987 ft | 413 kts | 98° |
| 2026-05-07 02:34 | 29.65719 | -90.70906 | 10843 ft | 400 kts | 97° |
| 2026-05-07 02:34 | 29.65586 | -90.68003 | 10445 ft | 346 kts | 97° |
| 2026-05-07 02:35 | 29.65437 | -90.65310 | 10026 ft | 330 kts | 98° |
| 2026-05-07 02:35 | 29.65268 | -90.62712 | 9574 ft | 324 kts | 98° |
| 2026-05-07 02:35 | 29.65114 | -90.60180 | 9118 ft | 320 kts | 98° |
| 2026-05-07 02:35 | 29.64969 | -90.57611 | 8661 ft | 316 kts | 97° |
| 2026-05-07 02:36 | 29.64818 | -90.55077 | 8208 ft | 330 kts | 97° |
| 2026-05-07 02:36 | 29.64667 | -90.52491 | 7730 ft | 309 kts | 97° |
| 2026-05-07 02:36 | 29.64526 | -90.50052 | 7253 ft | 305 kts | 97° |
| 2026-05-07 02:36 | 29.64376 | -90.47620 | 6787 ft | 309 kts | 97° |
| 2026-05-07 02:37 | 29.64227 | -90.45155 | 6369 ft | 307 kts | 97° |
| 2026-05-07 02:37 | 29.64088 | -90.42762 | 5933 ft | 302 kts | 97° |
| 2026-05-07 02:37 | 29.63943 | -90.40359 | 5493 ft | 300 kts | 97° |
| 2026-05-07 02:37 | 29.63800 | -90.37978 | 5061 ft | 298 kts | 97° |
| 2026-05-07 02:38 | 29.63762 | -90.35606 | 4630 ft | 296 kts | 92° |
| 2026-05-07 02:38 | 29.63586 | -90.33279 | 4180 ft | 289 kts | 107° |
| 2026-05-07 02:38 | 29.62934 | -90.31182 | 3726 ft | 269 kts | 121° |
| 2026-05-07 02:38 | 29.61963 | -90.29440 | 3287 ft | 251 kts | 134° |
| 2026-05-07 02:39 | 29.60827 | -90.28119 | 2926 ft | 221 kts | 147° |
| 2026-05-07 02:39 | 29.59599 | -90.27150 | 2680 ft | 210 kts | 157° |
| 2026-05-07 02:39 | 29.58306 | -90.26485 | 2447 ft | 199 kts | 167° |
| 2026-05-07 02:39 | 29.56996 | -90.26098 | 2263 ft | 192 kts | 175° |
| 2026-05-07 02:40 | 29.55696 | -90.25968 | 2037 ft | 179 kts | 182° |
| 2026-05-07 02:40 | 29.54546 | -90.25992 | 1818 ft | 151 kts | 184° |
| 2026-05-07 02:40 | 29.53601 | -90.25994 | 1635 ft | 115 kts | 184° |
| 2026-05-07 02:40 | 29.52883 | -90.26004 | 1482 ft | 100 kts | 185° |
| 2026-05-07 02:41 | 29.52184 | -90.26014 | 1349 ft | 101 kts | 184° |
| 2026-05-07 02:41 | 29.51489 | -90.26023 | 1227 ft | 98 kts | 183° |
| 2026-05-07 02:41 | 29.50790 | -90.26032 | 1105 ft | 104 kts | 183° |
| 2026-05-07 02:41 | 29.50063 | -90.26033 | 1003 ft | 106 kts | 181° |
| 2026-05-07 02:42 | 29.49296 | -90.26038 | 908 ft | 113 kts | 182° |
| 2026-05-07 02:42 | 29.48502 | -90.26052 | 832 ft | 114 kts | 183° |
| 2026-05-07 02:42 | 29.47715 | -90.26065 | 708 ft | 111 kts | 181° |
| 2026-05-07 02:42 | 29.46970 | -90.26078 | 539 ft | 107 kts | 182° |
| 2026-05-07 02:43 | 29.46232 | -90.26083 | 356 ft | 105 kts | 180° |
| 2026-05-07 02:43 | 29.45503 | -90.26095 | 175 ft | 106 kts | 179° |
| 2026-05-07 02:43 | 29.44829 | -90.26104 | 8 ft | 85 kts | 180° |
| 2026-05-07 02:43 | 29.44412 | -90.26107 | 1 ft | 22 kts | 181° |
| 2026-05-07 02:44 | 29.44317 | -90.26155 | 2 ft | 14 kts | 272° |
| 2026-05-07 02:44 | 29.44318 | -90.26237 | 3 ft | 16 kts | 269° |
| 2026-05-07 02:44 | 29.44379 | -90.26304 | 3 ft | 0 kts | 356° |